Time;durP1;ratioP1;P1;durP2;ratioP2;P2;SDS_P1;SDS_P2;PMS_P1;PMS_P2;Temp;Humidity;BMP_temperature;BMP_pressure;BME280_temperature;BME280_humidity;BME280_pressure;Samples;Min_cycle;Max_cycle;Signal;HPM_P1;HPM_P2
2021/10/19 00:00:23;;;;;;;;;;;5.70;1.00;;;;;;5038552;28;20657;-73
2021/10/19 00:02:48;;;;;;;;;;;5.80;1.00;;;;;;5037590;28;19955;-73
2021/10/19 00:05:14;;;;;;;;;;;5.70;1.00;;;;;;5071932;22;19925;-70
2021/10/19 00:07:40;;;;;;;;;;;5.70;1.00;;;;;;5046702;28;19921;-70
2021/10/19 00:10:06;;;;;;;;;;;5.70;1.00;;;;;;5059410;28;20253;-71
2021/10/19 00:12:32;;;;;;;;;;;5.60;1.00;;;;;;5061695;28;19913;-70
2021/10/19 00:14:58;;;;;;;;;;;5.60;1.00;;;;;;5059122;28;20020;-72
2021/10/19 00:17:23;;;;;;;;;;;5.60;1.00;;;;;;5052991;28;19909;-71
2021/10/19 00:19:49;;;;;;;;;;;5.60;1.00;;;;;;5051167;28;20121;-71
2021/10/19 00:22:14;;;;;;;;;;;5.50;1.00;;;;;;5044877;28;19917;-70
2021/10/19 00:24:40;;;;;;;;;;;5.50;1.00;;;;;;5038961;28;19909;-71
2021/10/19 00:27:05;;;;;;;;;;;5.50;1.00;;;;;;5043227;28;19993;-71
2021/10/19 00:29:31;;;;;;;;;;;5.50;1.00;;;;;;5048342;28;19916;-71
2021/10/19 00:31:57;;;;;;;;;;;5.50;1.00;;;;;;5033964;28;20003;-71
2021/10/19 00:34:23;;;;;;;;;;;5.40;1.00;;;;;;5046355;28;20084;-70
2021/10/19 00:36:48;;;;;;;;;;;5.40;1.00;;;;;;5040799;28;19909;-69
2021/10/19 00:39:14;;;;;;;;;;;5.40;1.00;;;;;;5037379;28;19956;-71
2021/10/19 00:41:40;;;;;;;;;;;5.40;1.00;;;;;;5039310;28;20254;-70
2021/10/19 00:44:05;;;;;;;;;;;5.40;1.00;;;;;;5043519;28;19955;-71
2021/10/19 00:46:31;;;;;;;;;;;5.50;1.00;;;;;;5045468;28;19951;-70
2021/10/19 00:48:56;;;;;;;;;;;5.50;1.00;;;;;;5051721;28;20352;-72
2021/10/19 00:51:22;;;;;;;;;;;5.50;1.00;;;;;;5038188;28;19967;-71
2021/10/19 00:53:47;;;;;;;;;;;5.50;1.00;;;;;;5044208;28;19920;-71
2021/10/19 00:56:13;;;;;;;;;;;5.50;1.00;;;;;;5032828;28;19913;-70
2021/10/19 00:58:40;;;;;;;;;;;5.60;1.00;;;;;;5040366;28;20004;-70
2021/10/19 01:01:06;;;;;;;;;;;5.70;1.00;;;;;;5046482;28;20041;-71
2021/10/19 01:03:32;;;;;;;;;;;5.70;1.00;;;;;;5043687;28;20222;-71
2021/10/19 01:05:59;;;;;;;;;;;5.70;1.00;;;;;;5041573;28;19917;-70
2021/10/19 01:08:25;;;;;;;;;;;5.80;1.00;;;;;;5035807;28;19917;-71
2021/10/19 01:10:51;;;;;;;;;;;5.80;1.00;;;;;;5050650;28;19959;-70
2021/10/19 01:13:17;;;;;;;;;;;5.80;1.00;;;;;;5034886;28;19917;-71
2021/10/19 01:15:45;;;;;;;;;;;5.70;1.00;;;;;;5047918;28;19909;-71
2021/10/19 01:18:12;;;;;;;;;;;5.60;1.00;;;;;;5050052;28;19909;-72
2021/10/19 01:20:38;;;;;;;;;;;5.60;1.00;;;;;;5040883;28;19919;-71
2021/10/19 01:23:03;;;;;;;;;;;5.60;1.00;;;;;;5032795;28;19925;-71
2021/10/19 01:25:30;;;;;;;;;;;5.60;1.00;;;;;;5038977;28;19970;-71
2021/10/19 01:27:59;;;;;;;;;;;5.60;1.00;;;;;;5040823;28;19917;-68
2021/10/19 01:30:24;;;;;;;;;;;5.60;1.00;;;;;;5041632;28;19948;-68
2021/10/19 01:32:50;;;;;;;;;;;5.60;1.00;;;;;;5049716;28;20294;-69
2021/10/19 01:35:15;;;;;;;;;;;5.50;1.00;;;;;;5040148;28;19995;-68
2021/10/19 01:37:42;;;;;;;;;;;5.50;1.00;;;;;;5046985;28;19959;-67
2021/10/19 01:40:09;;;;;;;;;;;5.40;1.00;;;;;;5040607;28;20278;-67
2021/10/19 01:42:35;;;;;;;;;;;5.30;1.00;;;;;;5032613;28;20679;-68
2021/10/19 01:45:01;;;;;;;;;;;5.30;1.00;;;;;;5040790;28;19920;-68
2021/10/19 01:47:27;;;;;;;;;;;5.40;1.00;;;;;;5051566;28;19909;-69
2021/10/19 01:49:53;;;;;;;;;;;5.40;1.00;;;;;;5041541;28;20397;-70
2021/10/19 01:52:18;;;;;;;;;;;5.40;1.00;;;;;;5035285;28;19927;-68
2021/10/19 01:54:44;;;;;;;;;;;5.40;1.00;;;;;;5041690;28;19913;-67
2021/10/19 01:57:09;;;;;;;;;;;5.40;1.00;;;;;;5039706;28;19936;-68
2021/10/19 01:59:34;;;;;;;;;;;5.30;1.00;;;;;;5039771;28;20333;-70
2021/10/19 02:02:00;;;;;;;;;;;5.30;1.00;;;;;;5037515;28;20019;-67
2021/10/19 02:04:25;;;;;;;;;;;5.30;1.00;;;;;;5045653;28;19927;-68
2021/10/19 02:06:51;;;;;;;;;;;5.30;1.00;;;;;;5036181;28;19921;-70
2021/10/19 02:09:16;;;;;;;;;;;5.30;1.00;;;;;;5035697;28;19920;-67
2021/10/19 02:11:42;;;;;;;;;;;5.20;1.00;;;;;;5041862;28;20051;-70
2021/10/19 02:14:07;;;;;;;;;;;5.30;1.00;;;;;;5040792;28;20274;-68
2021/10/19 02:16:33;;;;;;;;;;;5.20;1.00;;;;;;5040484;28;19916;-68
2021/10/19 02:18:58;;;;;;;;;;;5.10;1.00;;;;;;5044980;28;19921;-67
2021/10/19 02:21:24;;;;;;;;;;;5.10;1.00;;;;;;5039293;28;19916;-67
2021/10/19 02:23:49;;;;;;;;;;;5.00;1.00;;;;;;5030442;28;20325;-69
2021/10/19 02:26:15;;;;;;;;;;;5.00;1.00;;;;;;5047108;28;20555;-68
2021/10/19 02:28:40;;;;;;;;;;;5.00;1.00;;;;;;5038395;28;19921;-67
2021/10/19 02:31:06;;;;;;;;;;;5.10;1.00;;;;;;5037760;28;19913;-68
2021/10/19 02:33:32;;;;;;;;;;;5.10;1.00;;;;;;5041047;28;20032;-71
2021/10/19 02:35:58;;;;;;;;;;;5.10;1.00;;;;;;5037352;28;19913;-70
2021/10/19 02:38:23;;;;;;;;;;;5.10;1.00;;;;;;5041480;28;20323;-68
2021/10/19 02:40:49;;;;;;;;;;;5.00;1.00;;;;;;5039384;28;19962;-68
2021/10/19 02:43:15;;;;;;;;;;;5.00;1.00;;;;;;5040041;28;19963;-68
2021/10/19 02:45:40;;;;;;;;;;;5.10;1.00;;;;;;5036789;28;19920;-69
2021/10/19 02:48:06;;;;;;;;;;;5.10;1.00;;;;;;5049615;28;19916;-67
2021/10/19 02:50:32;;;;;;;;;;;5.10;1.00;;;;;;5040790;28;20286;-69
2021/10/19 02:52:57;;;;;;;;;;;5.10;1.00;;;;;;5035483;28;19963;-68
2021/10/19 02:55:23;;;;;;;;;;;5.20;1.00;;;;;;5044942;28;20373;-68
2021/10/19 02:57:48;;;;;;;;;;;5.20;1.00;;;;;;5031226;28;19928;-69
2021/10/19 03:00:15;;;;;;;;;;;5.20;1.00;;;;;;5036530;28;19917;-67
2021/10/19 03:02:40;;;;;;;;;;;5.20;1.00;;;;;;5044447;28;19925;-68
2021/10/19 03:05:06;;;;;;;;;;;5.20;1.00;;;;;;5036838;28;19917;-67
2021/10/19 03:07:32;;;;;;;;;;;5.20;1.00;;;;;;5043954;28;19927;-67
2021/10/19 03:09:57;;;;;;;;;;;5.10;1.00;;;;;;5039565;28;20430;-67
2021/10/19 03:12:23;;;;;;;;;;;5.20;1.00;;;;;;5036383;28;19921;-69
2021/10/19 03:14:48;;;;;;;;;;;5.20;1.00;;;;;;5042658;28;19917;-68
2021/10/19 03:17:14;;;;;;;;;;;5.20;1.00;;;;;;5041812;28;19951;-70
2021/10/19 03:19:39;;;;;;;;;;;5.20;1.00;;;;;;5048121;28;20291;-68
2021/10/19 03:22:05;;;;;;;;;;;5.10;1.00;;;;;;5048157;28;19913;-68
2021/10/19 03:24:30;;;;;;;;;;;5.10;1.00;;;;;;5035930;28;20356;-69
2021/10/19 03:26:56;;;;;;;;;;;5.20;1.00;;;;;;5040778;28;19925;-67
2021/10/19 03:29:23;;;;;;;;;;;5.10;1.00;;;;;;5036539;28;20346;-69
2021/10/19 03:31:48;;;;;;;;;;;5.10;1.00;;;;;;5037612;28;20635;-67
2021/10/19 03:34:14;;;;;;;;;;;5.10;1.00;;;;;;5037740;28;19970;-71
2021/10/19 03:36:39;;;;;;;;;;;5.10;1.00;;;;;;5032194;28;20095;-70
2021/10/19 03:39:05;;;;;;;;;;;5.20;1.00;;;;;;5039698;28;20328;-70
2021/10/19 03:41:31;;;;;;;;;;;5.20;1.00;;;;;;5035305;28;20350;-71
2021/10/19 03:43:56;;;;;;;;;;;5.30;1.00;;;;;;5042307;28;19920;-71
2021/10/19 03:46:22;;;;;;;;;;;5.30;1.00;;;;;;5041595;28;20288;-70
2021/10/19 03:48:47;;;;;;;;;;;5.30;1.00;;;;;;5048152;28;19988;-71
2021/10/19 03:51:13;;;;;;;;;;;5.20;1.00;;;;;;5039707;28;19912;-71
2021/10/19 03:53:39;;;;;;;;;;;5.30;1.00;;;;;;5035525;28;19917;-71
2021/10/19 03:56:08;;;;;;;;;;;5.30;1.00;;;;;;5040686;28;19913;-71
2021/10/19 03:58:33;;;;;;;;;;;5.40;1.00;;;;;;5038552;28;19996;-71
2021/10/19 04:00:59;;;;;;;;;;;5.40;1.00;;;;;;5040937;28;20004;-71
2021/10/19 04:03:25;;;;;;;;;;;5.40;1.00;;;;;;5031937;28;20027;-71
2021/10/19 04:05:51;;;;;;;;;;;5.50;1.00;;;;;;5046814;28;19959;-69
2021/10/19 04:08:17;;;;;;;;;;;5.50;1.00;;;;;;5038771;28;19923;-71
2021/10/19 04:10:42;;;;;;;;;;;5.50;1.00;;;;;;5030751;28;19913;-70
2021/10/19 04:13:08;;;;;;;;;;;5.60;1.00;;;;;;5035210;28;19913;-71
2021/10/19 04:15:34;;;;;;;;;;;5.60;1.00;;;;;;5034540;28;19913;-72
2021/10/19 04:17:59;;;;;;;;;;;5.60;1.00;;;;;;5048842;28;19936;-71
2021/10/19 04:20:25;;;;;;;;;;;5.60;1.00;;;;;;5040000;28;20286;-71
2021/10/19 04:22:50;;;;;;;;;;;5.70;1.00;;;;;;5043050;28;20265;-71
2021/10/19 04:25:16;;;;;;;;;;;5.60;1.00;;;;;;5037170;28;19917;-71
2021/10/19 04:27:41;;;;;;;;;;;5.60;1.00;;;;;;5036211;28;19916;-71
2021/10/19 04:30:07;;;;;;;;;;;5.60;1.00;;;;;;5036944;28;20020;-70
2021/10/19 04:32:32;;;;;;;;;;;5.70;1.00;;;;;;5030484;28;20270;-71
2021/10/19 04:34:58;;;;;;;;;;;5.70;1.00;;;;;;5039349;28;19913;-71
2021/10/19 04:37:23;;;;;;;;;;;5.70;1.00;;;;;;5040869;28;19919;-71
2021/10/19 04:39:49;;;;;;;;;;;5.70;1.00;;;;;;5034025;28;19993;-69
2021/10/19 04:42:14;;;;;;;;;;;5.70;1.00;;;;;;5040949;28;19917;-69
2021/10/19 04:44:40;;;;;;;;;;;5.70;1.00;;;;;;5035873;28;19964;-71
2021/10/19 04:47:05;;;;;;;;;;;5.70;1.00;;;;;;5037117;28;19909;-71
2021/10/19 04:49:32;;;;;;;;;;;5.70;1.00;;;;;;5047953;28;19917;-69
2021/10/19 04:51:58;;;;;;;;;;;5.80;1.00;;;;;;5042698;28;20058;-71
2021/10/19 04:54:24;;;;;;;;;;;5.80;1.00;;;;;;5040219;28;20417;-70
2021/10/19 04:56:49;;;;;;;;;;;5.80;1.00;;;;;;5039770;28;19924;-71
2021/10/19 04:59:14;;;;;;;;;;;5.80;1.00;;;;;;5034206;28;19920;-71
2021/10/19 05:01:40;;;;;;;;;;;5.80;1.00;;;;;;5033624;28;20774;-71
2021/10/19 05:04:07;;;;;;;;;;;5.80;1.00;;;;;;5042910;28;19950;-70
2021/10/19 05:06:32;;;;;;;;;;;5.90;1.00;;;;;;5034537;28;19923;-70
2021/10/19 05:08:58;;;;;;;;;;;5.90;1.00;;;;;;5035312;28;19917;-71
2021/10/19 05:11:23;;;;;;;;;;;6.00;1.00;;;;;;5048380;28;19913;-71
2021/10/19 05:13:49;;;;;;;;;;;6.00;1.00;;;;;;5043763;28;19924;-69
2021/10/19 05:16:14;;;;;;;;;;;6.00;1.00;;;;;;5038200;28;19913;-70
2021/10/19 05:18:40;;;;;;;;;;;6.00;1.00;;;;;;5050991;28;19913;-70
2021/10/19 05:21:05;;;;;;;;;;;6.10;1.00;;;;;;5046995;28;19920;-71
2021/10/19 05:23:31;;;;;;;;;;;6.10;1.00;;;;;;5042882;28;19931;-72
2021/10/19 05:25:57;;;;;;;;;;;6.10;1.00;;;;;;5044284;28;19913;-73
2021/10/19 05:28:22;;;;;;;;;;;6.20;1.00;;;;;;5037196;28;19929;-71
2021/10/19 05:30:48;;;;;;;;;;;6.20;1.00;;;;;;5038209;28;19912;-72
2021/10/19 05:33:13;;;;;;;;;;;6.30;1.00;;;;;;5041984;28;20605;-72
2021/10/19 05:35:39;;;;;;;;;;;6.30;1.00;;;;;;5037656;28;20356;-71
2021/10/19 05:38:04;;;;;;;;;;;6.40;1.00;;;;;;5042303;28;19939;-72
2021/10/19 05:40:30;;;;;;;;;;;6.40;1.00;;;;;;5044967;28;19960;-72
2021/10/19 05:42:55;;;;;;;;;;;6.40;1.00;;;;;;5031340;28;19924;-71
2021/10/19 05:45:21;;;;;;;;;;;6.40;1.00;;;;;;5037518;28;20306;-70
2021/10/19 05:47:47;;;;;;;;;;;6.50;1.00;;;;;;5033730;28;20401;-71
2021/10/19 05:50:13;;;;;;;;;;;6.50;1.00;;;;;;5044787;28;19917;-72
2021/10/19 05:52:40;;;;;;;;;;;6.50;1.00;;;;;;5047621;28;19921;-70
2021/10/19 05:55:05;;;;;;;;;;;6.60;1.00;;;;;;5040391;28;20361;-71
2021/10/19 05:57:31;;;;;;;;;;;6.70;1.00;;;;;;5039546;28;19978;-72
2021/10/19 05:59:56;;;;;;;;;;;6.70;1.00;;;;;;5032425;28;19917;-71
2021/10/19 06:02:22;;;;;;;;;;;6.70;1.00;;;;;;5048628;28;19997;-72
2021/10/19 06:04:47;;;;;;;;;;;6.80;1.00;;;;;;5034051;28;20012;-68
2021/10/19 06:07:13;;;;;;;;;;;6.80;1.00;;;;;;5045242;28;19921;-68
2021/10/19 06:09:38;;;;;;;;;;;6.90;1.00;;;;;;5039990;28;20316;-69
2021/10/19 06:12:05;;;;;;;;;;;7.00;1.00;;;;;;5034072;28;19956;-70
2021/10/19 06:14:31;;;;;;;;;;;7.00;1.00;;;;;;5040475;28;19920;-69
2021/10/19 06:16:56;;;;;;;;;;;7.00;1.00;;;;;;5028848;28;19932;-69
2021/10/19 06:19:22;;;;;;;;;;;7.10;1.00;;;;;;5038568;28;19919;-70
2021/10/19 06:21:47;;;;;;;;;;;7.10;1.00;;;;;;5030572;28;19948;-70
2021/10/19 06:24:13;;;;;;;;;;;7.20;1.00;;;;;;5029398;28;19967;-69
2021/10/19 06:26:38;;;;;;;;;;;7.30;1.00;;;;;;5040332;28;20023;-69
2021/10/19 06:29:08;;;;;;;;;;;7.40;1.00;;;;;;5029796;28;19921;-67
2021/10/19 06:31:34;;;;;;;;;;;7.40;1.00;;;;;;5031404;28;19913;-70
2021/10/19 06:33:59;;;;;;;;;;;7.50;1.00;;;;;;5041449;28;20393;-68
2021/10/19 06:36:25;;;;;;;;;;;7.60;1.00;;;;;;5035166;28;19928;-69
2021/10/19 06:38:51;;;;;;;;;;;7.60;1.00;;;;;;5042135;28;19913;-69
2021/10/19 06:41:17;;;;;;;;;;;7.80;1.00;;;;;;5044117;28;19968;-70
2021/10/19 06:43:42;;;;;;;;;;;7.80;1.00;;;;;;5033126;28;19975;-72
2021/10/19 06:46:08;;;;;;;;;;;7.90;1.00;;;;;;5039201;28;19920;-68
2021/10/19 06:48:34;;;;;;;;;;;8.10;1.00;;;;;;5047068;28;19917;-69
2021/10/19 06:50:59;;;;;;;;;;;8.20;1.00;;;;;;5024393;28;19995;-69
2021/10/19 06:53:25;;;;;;;;;;;8.30;1.00;;;;;;5049320;28;19951;-72
2021/10/19 06:55:50;;;;;;;;;;;8.40;1.00;;;;;;5049914;28;19956;-69
2021/10/19 06:58:16;;;;;;;;;;;8.50;1.00;;;;;;5040997;28;19913;-71
2021/10/19 07:00:41;;;;;;;;;;;8.60;1.00;;;;;;5041015;28;20367;-70
2021/10/19 07:03:07;;;;;;;;;;;8.70;1.00;;;;;;5036724;28;20332;-70
2021/10/19 07:05:33;;;;;;;;;;;8.70;1.00;;;;;;5038752;28;19929;-69
2021/10/19 07:07:58;;;;;;;;;;;8.80;1.00;;;;;;5029455;28;19924;-69
2021/10/19 07:10:24;;;;;;;;;;;8.90;1.00;;;;;;5046903;28;19909;-69
2021/10/19 07:12:49;;;;;;;;;;;8.90;1.00;;;;;;5047946;28;19909;-70
2021/10/19 07:15:15;;;;;;;;;;;9.00;1.00;;;;;;5048675;28;19916;-69
2021/10/19 07:17:42;;;;;;;;;;;9.00;1.00;;;;;;5049496;28;19913;-69
2021/10/19 07:20:09;;;;;;;;;;;9.00;1.00;;;;;;5049570;28;20003;-71
2021/10/19 07:22:35;;;;;;;;;;;9.00;1.00;;;;;;5046754;28;20294;-70
2021/10/19 07:25:01;;;;;;;;;;;9.20;1.00;;;;;;5029692;28;19910;-69
2021/10/19 07:27:26;;;;;;;;;;;9.30;1.00;;;;;;5029710;28;19974;-72
2021/10/19 07:29:52;;;;;;;;;;;9.40;1.00;;;;;;5040991;28;19920;-70
2021/10/19 07:32:18;;;;;;;;;;;9.40;1.00;;;;;;5038528;28;19920;-71
2021/10/19 07:34:43;;;;;;;;;;;9.50;1.00;;;;;;5029093;28;19917;-69
2021/10/19 07:37:09;;;;;;;;;;;9.60;1.00;;;;;;5033586;28;20372;-68
2021/10/19 07:39:34;;;;;;;;;;;9.70;1.00;;;;;;5034020;28;20061;-71
2021/10/19 07:42:00;;;;;;;;;;;9.70;1.00;;;;;;5030260;28;19959;-68
2021/10/19 07:44:25;;;;;;;;;;;9.70;1.00;;;;;;5045214;28;19917;-68
2021/10/19 07:46:54;;;;;;;;;;;9.80;1.00;;;;;;5039411;28;20255;-68
2021/10/19 07:49:19;;;;;;;;;;;9.70;1.00;;;;;;5028471;28;19920;-67
2021/10/19 07:51:45;;;;;;;;;;;9.70;1.00;;;;;;5028675;28;19913;-68
2021/10/19 07:54:11;;;;;;;;;;;9.80;1.00;;;;;;5028858;28;20004;-68
2021/10/19 07:56:38;;;;;;;;;;;9.80;1.00;;;;;;5028323;28;20052;-67
2021/10/19 07:59:05;;;;;;;;;;;9.80;1.00;;;;;;5028268;28;20012;-68
2021/10/19 08:01:34;;;;;;;;;;;9.80;1.00;;;;;;5027560;28;20048;-70
2021/10/19 08:03:59;;;;;;;;;;;9.80;1.00;;;;;;5028245;28;20020;-69
2021/10/19 08:06:25;;;;;;;;;;;9.80;1.00;;;;;;5010642;28;20424;-69
2021/10/19 08:08:51;;;;;;;;;;;9.90;1.00;;;;;;5028432;28;20019;-69
2021/10/19 08:11:16;;;;;;;;;;;9.90;1.00;;;;;;5029483;28;19909;-68
2021/10/19 08:13:42;;;;;;;;;;;9.90;1.00;;;;;;5028130;28;19913;-68
2021/10/19 08:16:07;;;;;;;;;;;10.00;1.00;;;;;;5028135;28;19913;-69
2021/10/19 08:18:33;;;;;;;;;;;10.00;1.00;;;;;;5028400;28;20024;-68
2021/10/19 08:20:58;;;;;;;;;;;10.10;1.00;;;;;;5028507;28;20012;-68
2021/10/19 08:23:24;;;;;;;;;;;10.20;1.00;;;;;;5028063;28;19921;-67
2021/10/19 08:25:50;;;;;;;;;;;10.20;1.00;;;;;;5028701;28;19913;-68
2021/10/19 08:28:19;;;;;;;;;;;10.20;1.00;;;;;;5032850;28;19966;-68
2021/10/19 08:30:45;;;;;;;;;;;10.20;1.00;;;;;;5027792;28;19909;-67
2021/10/19 08:33:10;;;;;;;;;;;10.30;1.00;;;;;;5028039;28;19913;-68
2021/10/19 08:35:35;;;;;;;;;;;10.30;1.00;;;;;;5032572;28;20377;-70
2021/10/19 08:38:04;;;;;;;;;;;10.40;1.00;;;;;;5032232;28;19913;-68
2021/10/19 08:40:30;;;;;;;;;;;10.50;1.00;;;;;;5032415;28;20047;-70
2021/10/19 08:42:57;;;;;;;;;;;10.60;1.00;;;;;;5030606;28;20324;-68
2021/10/19 08:45:23;;;;;;;;;;;10.70;1.00;;;;;;5031603;28;19910;-69
2021/10/19 08:47:49;;;;;;;;;;;10.80;1.00;;;;;;5032086;28;20000;-68
2021/10/19 08:50:17;;;;;;;;;;;11.00;1.00;;;;;;5032367;28;19917;-68
2021/10/19 08:52:43;;;;;;;;;;;11.10;1.00;;;;;;5031758;28;20343;-67
2021/10/19 08:55:08;;;;;;;;;;;11.20;99.90;;;;;;5032095;28;20024;-67
2021/10/19 08:57:34;;;;;;;;;;;11.30;99.90;;;;;;5032432;28;19909;-67
2021/10/19 08:59:59;;;;;;;;;;;11.40;99.90;;;;;;5031056;28;19920;-70
2021/10/19 09:02:38;;;;;;;;;;;11.50;99.90;;;;;;5031783;28;19910;-68
2021/10/19 09:05:04;;;;;;;;;;;11.60;99.90;;;;;;5034021;28;20008;-67
2021/10/19 09:07:30;;;;;;;;;;;11.70;99.90;;;;;;5046262;28;19924;-67
2021/10/19 09:09:55;;;;;;;;;;;11.70;1.00;;;;;;5031999;28;20407;-67
2021/10/19 09:12:22;;;;;;;;;;;11.80;1.00;;;;;;5030832;28;19913;-74
2021/10/19 09:14:47;;;;;;;;;;;11.80;1.00;;;;;;5029828;28;19920;-70
2021/10/19 09:17:13;;;;;;;;;;;11.80;1.00;;;;;;5030624;28;19917;-67
2021/10/19 09:19:39;;;;;;;;;;;11.80;1.00;;;;;;5030895;28;19944;-68
2021/10/19 09:22:07;;;;;;;;;;;11.90;1.00;;;;;;5041889;28;19912;-67
2021/10/19 09:24:34;;;;;;;;;;;11.90;1.00;;;;;;5035947;28;19948;-67
2021/10/19 09:27:04;;;;;;;;;;;12.00;1.00;;;;;;5031377;28;19909;-70
2021/10/19 09:29:33;;;;;;;;;;;12.20;1.00;;;;;;5035556;28;19913;-67
2021/10/19 09:31:59;;;;;;;;;;;12.40;1.00;;;;;;5029653;28;19932;-67
2021/10/19 09:34:29;;;;;;;;;;;12.60;99.90;;;;;;5031401;28;19916;-66
2021/10/19 09:36:55;;;;;;;;;;;12.80;1.00;;;;;;5031479;28;19917;-72
2021/10/19 09:39:30;;;;;;;;;;;12.90;1.00;;;;;;5031389;28;19913;-67
2021/10/19 09:41:56;;;;;;;;;;;13.00;1.00;;;;;;5030532;28;19917;-68
2021/10/19 09:44:22;;;;;;;;;;;13.10;99.90;;;;;;5030070;28;19910;-69
2021/10/19 09:46:47;;;;;;;;;;;13.20;99.90;;;;;;5030380;28;20012;-68
2021/10/19 09:49:14;;;;;;;;;;;13.30;1.00;;;;;;5030557;28;19913;-67
2021/10/19 09:51:40;;;;;;;;;;;13.50;1.00;;;;;;5031073;28;19913;-70
2021/10/19 09:54:09;;;;;;;;;;;13.60;99.90;;;;;;5030462;28;19925;-67
2021/10/19 09:56:35;;;;;;;;;;;13.70;1.00;;;;;;5034233;28;19917;-68
2021/10/19 09:59:01;;;;;;;;;;;13.80;1.00;;;;;;5029041;28;19956;-68
2021/10/19 10:01:27;;;;;;;;;;;13.80;1.00;;;;;;5029333;28;19920;-68
2021/10/19 10:03:53;;;;;;;;;;;13.80;1.00;;;;;;5011533;28;19919;-69
2021/10/19 10:06:18;;;;;;;;;;;13.80;1.00;;;;;;5030856;28;20298;-69
2021/10/19 10:08:45;;;;;;;;;;;13.80;1.00;;;;;;5030141;28;19917;-67
2021/10/19 10:11:10;;;;;;;;;;;13.80;1.00;;;;;;5011758;28;19913;-70
2021/10/19 10:13:36;;;;;;;;;;;13.70;99.90;;;;;;5028634;28;19963;-67
2021/10/19 10:16:11;;;;;;;;;;;13.60;1.00;;;;;;5029038;28;20370;-68
2021/10/19 10:18:36;;;;;;;;;;;13.60;1.00;;;;;;5030330;28;19921;-68
2021/10/19 10:21:18;;;;;;;;;;;13.60;1.00;;;;;;5029890;28;19990;-67
2021/10/19 10:23:44;;;;;;;;;;;13.60;1.00;;;;;;5029177;28;19942;-67
2021/10/19 10:26:24;;;;;;;;;;;13.50;1.00;;;;;;5029828;28;19931;-68
2021/10/19 10:28:49;;;;;;;;;;;13.50;99.90;;;;;;5032642;28;19929;-68
2021/10/19 10:31:22;;;;;;;;;;;13.60;1.00;;;;;;5031096;28;20663;-69
2021/10/19 10:34:08;;;;;;;;;;;13.60;99.90;;;;;;5029164;28;19920;-67
2021/10/19 10:36:42;;;;;;;;;;;13.70;99.90;;;;;;5028957;28;19917;-67
2021/10/19 10:39:08;;;;;;;;;;;13.70;99.90;;;;;;5029184;28;20019;-69
2021/10/19 10:41:44;;;;;;;;;;;13.70;84.00;;;;;;5029294;28;20020;-69
2021/10/19 10:44:10;;;;;;;;;;;13.70;99.90;;;;;;5028337;28;19925;-69
2021/10/19 10:46:36;;;;;;;;;;;13.70;1.00;;;;;;5028350;28;19935;-68
2021/10/19 10:49:02;;;;;;;;;;;13.80;99.90;;;;;;5028874;28;19917;-70
2021/10/19 10:51:32;;;;;;;;;;;13.90;1.00;;;;;;5029017;28;19921;-67
2021/10/19 10:53:58;;;;;;;;;;;14.00;1.00;;;;;;5027829;28;19925;-68
2021/10/19 10:56:24;;;;;;;;;;;14.10;1.00;;;;;;5028351;28;19939;-67
2021/10/19 10:58:50;;;;;;;;;;;14.10;1.00;;;;;;5027766;28;19913;-67
2021/10/19 11:01:23;;;;;;;;;;;14.20;1.00;;;;;;5028901;28;19963;-69
2021/10/19 11:03:49;;;;;;;;;;;14.20;1.00;;;;;;5027948;28;20049;-67
2021/10/19 11:06:16;;;;;;;;;;;14.20;1.00;;;;;;5028761;28;19913;-67
2021/10/19 11:08:42;;;;;;;;;;;14.30;99.90;;;;;;5028703;28;19921;-69
2021/10/19 11:11:08;;;;;;;;;;;14.40;99.90;;;;;;5029395;28;19926;-70
2021/10/19 11:13:48;;;;;;;;;;;14.50;99.90;;;;;;5027118;28;19999;-67
2021/10/19 11:16:15;;;;;;;;;;;14.70;1.00;;;;;;5028456;28;19921;-67
2021/10/19 11:18:40;;;;;;;;;;;14.80;1.00;;;;;;5028810;28;20361;-70
2021/10/19 11:21:06;;;;;;;;;;;14.90;1.00;;;;;;5029102;28;19967;-67
2021/10/19 11:23:36;;;;;;;;;;;15.10;1.00;;;;;;5027531;28;19913;-67
2021/10/19 11:26:02;;;;;;;;;;;15.20;1.00;;;;;;5028888;28;20622;-68
2021/10/19 11:28:27;;;;;;;;;;;15.30;1.00;;;;;;5031228;28;20022;-67
2021/10/19 11:30:53;;;;;;;;;;;15.40;99.90;;;;;;5028060;28;20012;-68
2021/10/19 11:33:20;;;;;;;;;;;15.50;1.00;;;;;;5028047;28;20604;-70
2021/10/19 11:35:46;;;;;;;;;;;15.60;1.00;;;;;;5029022;28;19912;-68
2021/10/19 11:38:11;;;;;;;;;;;15.80;1.00;;;;;;5028930;28;20476;-69
2021/10/19 11:40:50;;;;;;;;;;;15.80;99.90;;;;;;5028932;28;19913;-71
2021/10/19 11:43:18;;;;;;;;;;;15.90;99.90;;;;;;5027173;28;20322;-71
2021/10/19 11:45:44;;;;;;;;;;;16.00;99.90;;;;;;5027474;28;19967;-69
2021/10/19 11:48:11;;;;;;;;;;;16.00;99.90;;;;;;5028308;28;20418;-68
2021/10/19 11:50:37;;;;;;;;;;;16.20;99.90;;;;;;5028463;28;19913;-67
2021/10/19 11:53:04;;;;;;;;;;;16.20;34.20;;;;;;5027151;28;20063;-67
2021/10/19 11:55:30;;;;;;;;;;;16.30;1.00;;;;;;5028251;28;20008;-69
2021/10/19 11:57:56;;;;;;;;;;;16.50;1.00;;;;;;5027361;28;19928;-69
2021/10/19 12:00:22;;;;;;;;;;;16.70;1.00;;;;;;5027886;28;19916;-69
2021/10/19 12:02:49;;;;;;;;;;;16.80;99.90;;;;;;5027777;28;19913;-69
2021/10/19 12:05:30;;;;;;;;;;;16.80;99.90;;;;;;5114123;22;19923;-76
2021/10/19 12:07:57;;;;;;;;;;;16.80;99.90;;;;;;5044874;28;19913;-73
2021/10/19 12:10:29;;;;;;;;;;;16.80;99.90;;;;;;5024460;28;19968;-73
2021/10/19 12:12:57;;;;;;;;;;;16.70;99.90;;;;;;5014245;28;19913;-74
2021/10/19 12:15:24;;;;;;;;;;;16.60;99.90;;;;;;5032423;28;19917;-70
2021/10/19 12:17:57;;;;;;;;;;;16.60;99.90;;;;;;5014200;28;19913;-72
2021/10/19 12:20:22;;;;;;;;;;;16.60;99.90;;;;;;5027436;28;19935;-70
2021/10/19 12:22:48;;;;;;;;;;;16.70;60.00;;;;;;5032811;28;19931;-73
2021/10/19 12:25:13;;;;;;;;;;;16.70;42.30;;;;;;5032616;28;19924;-71
2021/10/19 12:27:39;;;;;;;;;;;16.60;4.30;;;;;;5030158;28;20007;-71
2021/10/19 12:30:12;;;;;;;;;;;16.50;1.00;;;;;;5022335;28;20008;-72
2021/10/19 12:32:38;;;;;;;;;;;16.30;1.00;;;;;;5026966;28;19913;-71
2021/10/19 12:35:04;;;;;;;;;;;16.20;1.00;;;;;;5023386;28;19993;-74
2021/10/19 12:37:33;;;;;;;;;;;16.00;31.40;;;;;;5026409;28;20231;-73
2021/10/19 12:40:00;;;;;;;;;;;15.80;92.30;;;;;;5030626;28;19925;-71
2021/10/19 12:42:26;;;;;;;;;;;15.60;99.90;;;;;;5026679;28;19921;-73
2021/10/19 12:44:51;;;;;;;;;;;15.40;99.90;;;;;;5025979;28;20270;-71
2021/10/19 12:47:17;;;;;;;;;;;15.30;1.00;;;;;;5027474;28;20393;-71
2021/10/19 12:49:42;;;;;;;;;;;15.20;1.00;;;;;;5018109;28;19933;-71
2021/10/19 12:52:08;;;;;;;;;;;15.20;1.00;;;;;;5013084;28;20460;-72
2021/10/19 12:54:34;;;;;;;;;;;15.20;1.00;;;;;;5014414;28;19913;-72
2021/10/19 12:56:59;;;;;;;;;;;15.30;34.50;;;;;;5012687;28;19914;-71
2021/10/19 12:59:25;;;;;;;;;;;15.50;57.10;;;;;;5022412;28;19972;-74
2021/10/19 13:01:53;;;;;;;;;;;15.60;19.30;;;;;;5019550;28;20496;-72
2021/10/19 13:04:18;;;;;;;;;;;15.70;12.80;;;;;;5039833;28;19917;-76
2021/10/19 13:06:44;;;;;;;;;;;15.90;1.00;;;;;;5050042;28;19923;-73
2021/10/19 13:09:09;;;;;;;;;;;15.90;1.00;;;;;;5031880;28;19913;-71
2021/10/19 13:11:35;;;;;;;;;;;16.00;1.00;;;;;;5021681;28;19941;-74
2021/10/19 13:14:00;;;;;;;;;;;16.00;1.00;;;;;;5019344;28;19924;-71
2021/10/19 13:16:26;;;;;;;;;;;15.90;1.00;;;;;;5022418;28;19913;-72
2021/10/19 13:18:52;;;;;;;;;;;15.90;1.00;;;;;;5022879;28;19917;-72
2021/10/19 13:21:18;;;;;;;;;;;15.80;1.00;;;;;;5027721;28;19914;-73
2021/10/19 13:23:44;;;;;;;;;;;15.80;1.00;;;;;;5021365;28;20266;-73
2021/10/19 13:26:10;;;;;;;;;;;15.70;1.00;;;;;;5022539;28;20645;-72
2021/10/19 13:28:36;;;;;;;;;;;15.70;1.00;;;;;;5029800;28;20012;-73
2021/10/19 13:31:02;;;;;;;;;;;15.60;1.00;;;;;;5030636;28;19991;-72
2021/10/19 13:33:27;;;;;;;;;;;15.50;1.00;;;;;;5022298;28;19944;-73
2021/10/19 13:35:53;;;;;;;;;;;15.40;99.90;;;;;;5022653;28;19960;-72
2021/10/19 13:38:19;;;;;;;;;;;15.40;99.90;;;;;;5018763;28;20009;-72
2021/10/19 13:40:46;;;;;;;;;;;15.30;99.90;;;;;;5019613;28;19913;-73
2021/10/19 13:43:12;;;;;;;;;;;15.30;99.90;;;;;;5021473;28;19939;-73
2021/10/19 13:45:37;;;;;;;;;;;15.10;1.00;;;;;;5018536;28;19917;-73
2021/10/19 13:48:07;;;;;;;;;;;15.10;1.00;;;;;;5020635;28;19921;-71
2021/10/19 13:50:33;;;;;;;;;;;15.00;1.00;;;;;;5017835;28;20007;-73
2021/10/19 13:52:59;;;;;;;;;;;14.90;1.00;;;;;;5019282;28;20462;-73
2021/10/19 13:55:24;;;;;;;;;;;14.80;6.20;;;;;;5022123;28;19913;-72
2021/10/19 13:57:50;;;;;;;;;;;14.70;99.90;;;;;;5025372;28;19927;-72
2021/10/19 14:00:15;;;;;;;;;;;14.60;1.00;;;;;;5019210;28;19914;-74
2021/10/19 14:02:41;;;;;;;;;;;14.60;1.00;;;;;;5016211;28;19921;-70
2021/10/19 14:05:09;;;;;;;;;;;14.50;99.90;;;;;;5024526;28;21538;-72
2021/10/19 14:07:34;;;;;;;;;;;14.50;99.90;;;;;;5041526;28;19951;-73
2021/10/19 14:10:00;;;;;;;;;;;14.40;1.00;;;;;;5031225;28;19913;-73
2021/10/19 14:12:26;;;;;;;;;;;14.30;1.00;;;;;;5036758;28;19936;-73
2021/10/19 14:14:51;;;;;;;;;;;14.30;99.90;;;;;;5045631;28;19916;-72
2021/10/19 14:17:21;;;;;;;;;;;14.20;1.00;;;;;;5049386;28;19916;-73
2021/10/19 14:19:49;;;;;;;;;;;14.20;1.00;;;;;;5029520;28;19909;-73
2021/10/19 14:22:16;;;;;;;;;;;14.20;1.00;;;;;;5010657;28;19918;-73
2021/10/19 14:24:41;;;;;;;;;;;14.10;66.90;;;;;;5010497;28;20000;-72
2021/10/19 14:27:07;;;;;;;;;;;14.10;99.90;;;;;;5011906;28;19963;-71
2021/10/19 14:29:33;;;;;;;;;;;14.10;99.90;;;;;;5032833;28;19924;-75